createdAt,value
2023-04-16T00:00:28.512Z,4.10
2023-04-16T00:03:16.233Z,4.50
2023-04-16T00:05:43.624Z,4.68
2023-04-16T00:08:10.751Z,4.60
2023-04-16T00:10:38.443Z,5.13
2023-04-16T00:13:05.478Z,6.55
2023-04-16T00:15:32.789Z,4.78
2023-04-16T00:17:59.681Z,4.90
2023-04-16T00:20:26.954Z,4.50
2023-04-16T00:22:53.838Z,4.10
2023-04-16T00:25:21.765Z,3.97
2023-04-16T00:27:48.612Z,5.03
2023-04-16T00:30:16.030Z,4.70
2023-04-16T00:32:43.174Z,6.00
2023-04-16T00:35:10.601Z,6.35
2023-04-16T00:37:37.506Z,5.93
2023-04-16T00:40:05.680Z,5.65
2023-04-16T00:42:32.583Z,6.10
2023-04-16T00:44:59.807Z,5.80
2023-04-16T00:47:28.203Z,6.10
2023-04-16T00:49:55.710Z,6.20
2023-04-16T00:52:22.733Z,6.60
2023-04-16T00:54:52.752Z,6.45
2023-04-16T00:57:21.240Z,5.80
2023-04-16T00:59:48.466Z,5.60
2023-04-16T01:02:15.957Z,6.32
2023-04-16T01:04:43.360Z,6.10
2023-04-16T01:07:10.234Z,5.40
2023-04-16T01:09:37.908Z,5.33
2023-04-16T01:12:04.821Z,5.07
2023-04-16T01:14:36.554Z,5.72
2023-04-16T01:17:04.407Z,5.78
2023-04-16T01:19:31.648Z,5.22
2023-04-16T01:21:59.054Z,6.17
2023-04-16T01:24:26.457Z,5.40
2023-04-16T01:26:53.708Z,5.30
2023-04-16T01:29:20.957Z,5.60
2023-04-16T01:31:49.498Z,5.47
2023-04-16T01:34:25.589Z,4.63
2023-04-16T01:36:52.803Z,5.00
2023-04-16T01:39:20.064Z,4.00
2023-04-16T01:41:46.965Z,3.90
2023-04-16T01:44:14.349Z,4.05
2023-04-16T01:46:43.773Z,4.83
2023-04-16T01:49:11.372Z,4.45
2023-04-16T01:51:38.879Z,4.18
2023-04-16T01:54:06.213Z,4.38
2023-04-16T01:56:33.179Z,4.47
2023-04-16T01:59:00.557Z,4.13
2023-04-16T02:01:33.548Z,3.53
2023-04-16T02:04:01.059Z,3.55
2023-04-16T02:06:28.123Z,4.10
2023-04-16T02:08:55.465Z,3.83
2023-04-16T02:11:22.425Z,3.37
2023-04-16T02:13:51.046Z,3.28
2023-04-16T02:16:19.037Z,3.70
2023-04-16T02:18:52.415Z,3.42
2023-04-16T02:21:21.638Z,3.80
2023-04-16T02:23:52.182Z,4.73
2023-04-16T02:26:24.066Z,4.03
2023-04-16T02:28:51.467Z,3.85
2023-04-16T02:31:23.661Z,3.20
2023-04-16T02:33:51.107Z,4.13
2023-04-16T02:36:18.333Z,4.60
2023-04-16T02:38:45.565Z,4.55
2023-04-16T02:41:12.587Z,3.67
2023-04-16T02:43:39.845Z,3.65
2023-04-16T02:46:06.968Z,3.72
2023-04-16T02:48:34.549Z,3.93
2023-04-16T02:51:01.644Z,3.80
2023-04-16T02:53:29.116Z,4.50
2023-04-16T02:55:56.290Z,4.30
2023-04-16T02:58:25.022Z,4.35
2023-04-16T03:00:53.574Z,3.67
2023-04-16T03:03:22.101Z,3.83
2023-04-16T03:05:49.168Z,4.15
2023-04-16T03:08:17.092Z,4.30
2023-04-16T03:10:44.053Z,3.40
2023-04-16T03:13:11.317Z,4.33
2023-04-16T03:15:38.302Z,4.00
2023-04-16T03:18:05.743Z,3.90
2023-04-16T03:20:32.905Z,3.65
2023-04-16T03:23:00.134Z,3.30
2023-04-16T03:25:27.066Z,3.60
2023-04-16T03:27:54.759Z,3.67
2023-04-16T03:30:22.156Z,4.00
2023-04-16T03:32:49.506Z,3.75
2023-04-16T03:35:16.722Z,4.07
2023-04-16T03:37:45.437Z,4.70
2023-04-16T03:40:12.978Z,4.95
2023-04-16T03:42:40.294Z,4.50
2023-04-16T03:45:09.613Z,4.63
2023-04-16T03:47:38.272Z,5.90
2023-04-16T03:50:05.709Z,4.50
2023-04-16T03:52:33.114Z,4.63
2023-04-16T03:55:00.104Z,5.03
2023-04-16T03:57:30.620Z,6.05
2023-04-16T04:00:03.776Z,4.53
2023-04-16T04:02:41.679Z,5.07
2023-04-16T04:05:15.106Z,4.10
2023-04-16T04:07:43.048Z,4.78
2023-04-16T04:10:10.342Z,4.15
2023-04-16T04:12:40.826Z,4.00
2023-04-16T04:15:08.543Z,3.63
2023-04-16T04:17:35.891Z,4.57
2023-04-16T04:20:03.330Z,4.28
2023-04-16T04:22:31.915Z,4.72
2023-04-16T04:24:59.129Z,5.38
2023-04-16T04:27:28.668Z,4.90
2023-04-16T04:29:55.592Z,5.60
2023-04-16T04:32:23.132Z,4.97
2023-04-16T04:34:50.324Z,4.68
2023-04-16T04:37:17.606Z,5.57
2023-04-16T04:39:44.824Z,4.70
2023-04-16T04:42:13.069Z,5.65
2023-04-16T04:44:40.032Z,5.30
2023-04-16T04:47:08.790Z,4.45
2023-04-16T04:49:35.737Z,5.63
2023-04-16T04:52:03.849Z,5.10
2023-04-16T04:54:32.858Z,5.07
2023-04-16T04:57:00.541Z,4.65
2023-04-16T04:59:29.270Z,5.45
2023-04-16T05:01:56.546Z,5.35
2023-04-16T05:04:23.477Z,5.20
2023-04-16T05:06:50.709Z,4.63
2023-04-16T05:09:17.684Z,4.22
2023-04-16T05:11:44.885Z,5.30
2023-04-16T05:14:11.840Z,4.70
2023-04-16T05:16:39.172Z,5.90
2023-04-16T05:19:06.277Z,5.15
2023-04-16T05:21:34.130Z,4.82
2023-04-16T05:24:01.053Z,4.90
2023-04-16T05:26:28.301Z,5.80
2023-04-16T05:28:55.220Z,3.90
2023-04-16T05:31:22.612Z,4.57
2023-04-16T05:33:49.614Z,4.60
2023-04-16T05:36:17.068Z,4.00
2023-04-16T05:38:43.942Z,4.93
2023-04-16T05:41:11.186Z,3.73
2023-04-16T05:43:38.091Z,3.55
2023-04-16T05:46:05.574Z,4.38
2023-04-16T05:48:32.757Z,5.00
2023-04-16T05:51:00.097Z,4.30
2023-04-16T05:53:27.448Z,4.27
2023-04-16T05:55:54.740Z,4.30
2023-04-16T05:58:21.667Z,4.63
2023-04-16T06:00:49.088Z,5.00
2023-04-16T06:03:16.198Z,3.97
2023-04-16T06:05:43.838Z,4.43
2023-04-16T06:08:11.015Z,4.80
2023-04-16T06:10:38.391Z,4.95
2023-04-16T06:13:05.284Z,4.35
2023-04-16T06:15:32.571Z,4.70
2023-04-16T06:18:00.973Z,4.20
2023-04-16T06:20:28.491Z,4.38
2023-04-16T06:22:55.954Z,4.22
2023-04-16T06:25:23.424Z,4.22
2023-04-16T06:27:50.337Z,3.92
2023-04-16T06:30:20.252Z,3.93
2023-04-16T06:32:47.336Z,4.20
2023-04-16T06:35:14.782Z,4.18
2023-04-16T06:37:41.861Z,4.70
2023-04-16T06:40:09.639Z,4.50
2023-04-16T06:42:36.824Z,4.53
2023-04-16T06:45:04.564Z,4.78
2023-04-16T06:47:31.480Z,3.83
2023-04-16T06:49:58.728Z,3.92
2023-04-16T06:52:25.755Z,4.70
2023-04-16T06:54:53.075Z,4.30
2023-04-16T06:57:20.091Z,4.40
2023-04-16T06:59:47.350Z,4.50
2023-04-16T07:02:14.625Z,4.40
2023-04-16T07:04:42.074Z,4.18
2023-04-16T07:07:09.131Z,4.30
2023-04-16T07:09:36.819Z,3.83
2023-04-16T07:12:03.846Z,4.03
2023-04-16T07:14:31.344Z,3.80
2023-04-16T07:16:58.571Z,3.35
2023-04-16T07:19:26.182Z,3.97
2023-04-16T07:21:53.128Z,4.03
2023-04-16T07:24:20.475Z,3.92
2023-04-16T07:26:47.407Z,3.45
2023-04-16T07:29:14.708Z,3.72
2023-04-16T07:31:41.678Z,3.30
2023-04-16T07:34:09.321Z,3.85
2023-04-16T07:36:36.458Z,4.30
2023-04-16T07:39:04.964Z,3.08
2023-04-16T07:41:32.051Z,3.58
2023-04-16T07:43:59.431Z,3.77
2023-04-16T07:46:30.451Z,3.60
2023-04-16T07:49:03.476Z,3.85
2023-04-16T07:51:30.399Z,3.60
2023-04-16T07:53:57.651Z,3.90
2023-04-16T07:56:24.540Z,4.50
2023-04-16T07:58:51.845Z,3.65
2023-04-16T08:01:18.872Z,3.65
2023-04-16T08:03:46.384Z,3.70
2023-04-16T08:06:13.487Z,3.90
2023-04-16T08:08:40.804Z,4.17
2023-04-16T08:11:07.774Z,4.20
2023-04-16T08:13:35.050Z,3.70
2023-04-16T08:16:02.435Z,5.13
2023-04-16T08:18:29.717Z,5.60
2023-04-16T08:20:56.796Z,4.80
2023-04-16T08:23:24.096Z,3.80
2023-04-16T08:25:52.921Z,4.10
2023-04-16T08:28:20.522Z,4.30
2023-04-16T08:30:47.823Z,4.45
2023-04-16T08:33:15.200Z,4.27
2023-04-16T08:35:42.391Z,4.13
2023-04-16T08:38:09.652Z,4.68
2023-04-16T08:40:40.294Z,4.95
2023-04-16T08:43:12.584Z,4.45
2023-04-16T08:45:41.953Z,4.90
2023-04-16T08:48:12.101Z,4.65
2023-04-16T08:50:41.229Z,4.55
2023-04-16T08:53:11.523Z,5.25
2023-04-16T08:55:49.017Z,6.25
2023-04-16T08:58:21.651Z,6.77
2023-04-16T09:00:51.779Z,6.18
2023-04-16T09:03:21.874Z,8.57
2023-04-16T09:05:49.756Z,8.88
2023-04-16T09:08:18.365Z,6.40
2023-04-16T09:10:45.520Z,8.97
2023-04-16T09:13:16.026Z,6.88
2023-04-16T09:15:44.318Z,8.77
2023-04-16T09:18:12.457Z,12.13
2023-04-16T09:20:39.709Z,9.45
2023-04-16T09:23:07.026Z,9.03
2023-04-16T09:25:38.701Z,6.53
2023-04-16T09:28:06.404Z,4.38
2023-04-16T09:30:34.728Z,3.83
2023-04-16T09:33:24.167Z,3.17
2023-04-16T09:35:54.136Z,2.50
2023-04-16T09:38:21.652Z,2.30
2023-04-16T09:40:48.785Z,1.80
2023-04-16T09:43:18.367Z,1.80
2023-04-16T09:45:55.220Z,2.58
2023-04-16T09:48:30.387Z,3.10
2023-04-16T09:50:58.354Z,2.22
2023-04-16T09:53:28.069Z,2.85
2023-04-16T09:55:58.802Z,2.60
2023-04-16T09:58:26.413Z,2.42
2023-04-16T10:01:03.040Z,3.10
2023-04-16T10:03:34.917Z,2.85
2023-04-16T10:06:07.414Z,3.10
2023-04-16T10:08:34.669Z,2.50
2023-04-16T10:11:02.622Z,2.60
2023-04-16T10:13:31.344Z,2.13
2023-04-16T10:15:59.011Z,1.73
2023-04-16T10:18:26.562Z,1.30
2023-04-16T10:20:53.574Z,1.08
2023-04-16T10:23:22.567Z,1.45
2023-04-16T10:25:50.263Z,1.20
2023-04-16T10:28:17.702Z,1.30
2023-04-16T10:30:52.894Z,2.08
2023-04-16T10:33:25.911Z,1.95
2023-04-16T10:36:07.997Z,2.00
2023-04-16T10:38:39.124Z,2.00
2023-04-16T10:41:07.359Z,2.47
2023-04-16T10:43:50.982Z,2.53
2023-04-16T10:46:22.153Z,2.28
2023-04-16T10:48:51.617Z,2.90
2023-04-16T10:51:32.649Z,2.33
2023-04-16T10:54:12.820Z,2.47
2023-04-16T10:56:39.718Z,3.13
2023-04-16T10:59:07.941Z,2.13
2023-04-16T11:01:42.096Z,2.50
2023-04-16T11:04:22.335Z,2.77
2023-04-16T11:07:03.635Z,2.30
2023-04-16T11:10:05.472Z,3.10
2023-04-16T11:12:38.075Z,2.75
2023-04-16T11:15:10.536Z,3.15
2023-04-16T11:17:41.724Z,3.30
2023-04-16T11:20:23.519Z,3.17
2023-04-16T11:22:52.280Z,3.53
2023-04-16T11:25:30.629Z,3.75
2023-04-16T11:27:59.377Z,3.55
2023-04-16T11:30:38.215Z,4.47
2023-04-16T11:33:06.191Z,4.60
2023-04-16T11:35:33.710Z,4.78
2023-04-16T11:38:00.757Z,4.13
2023-04-16T11:40:31.779Z,4.93
2023-04-16T11:43:13.604Z,4.93
2023-04-16T11:45:55.206Z,5.00
2023-04-16T11:48:22.507Z,4.75
2023-04-16T11:50:59.145Z,5.03
2023-04-16T11:53:26.445Z,5.43
2023-04-16T11:55:53.591Z,4.97
2023-04-16T11:58:22.976Z,4.68
2023-04-16T12:00:52.251Z,4.63
2023-04-16T12:03:19.741Z,5.00
2023-04-16T12:05:47.468Z,4.93
2023-04-16T12:08:29.550Z,5.13
2023-04-16T12:10:56.752Z,5.15
2023-04-16T12:13:24.013Z,5.07
2023-04-16T12:15:54.545Z,4.72
2023-04-16T12:18:23.925Z,5.68
2023-04-16T12:20:54.084Z,4.73
2023-04-16T12:23:30.295Z,5.13
2023-04-16T12:26:02.802Z,6.15
2023-04-16T12:28:35.203Z,5.63
2023-04-16T12:31:03.674Z,5.30
2023-04-16T12:33:31.574Z,6.20
2023-04-16T12:35:58.655Z,7.65
2023-04-16T12:38:27.029Z,8.02
2023-04-16T12:40:57.345Z,8.30
2023-04-16T12:43:25.751Z,7.38
2023-04-16T12:45:53.361Z,8.20
2023-04-16T12:48:20.718Z,8.43
2023-04-16T12:50:47.727Z,9.18
2023-04-16T12:53:15.041Z,8.60
2023-04-16T12:55:41.962Z,8.10
2023-04-16T12:58:11.897Z,8.57
2023-04-16T13:00:40.633Z,6.95
2023-04-16T13:03:08.060Z,7.43
2023-04-16T13:05:35.276Z,8.13
2023-04-16T13:08:02.575Z,7.35
2023-04-16T13:10:29.472Z,6.53
2023-04-16T13:12:57.199Z,6.43
2023-04-16T13:15:24.102Z,7.70
2023-04-16T13:17:51.397Z,7.50
2023-04-16T13:20:18.319Z,9.13
2023-04-16T13:22:45.669Z,9.53
2023-04-16T13:25:12.679Z,9.05
2023-04-16T13:27:39.999Z,9.63
2023-04-16T13:30:07.945Z,7.60
2023-04-16T13:32:35.209Z,9.45
2023-04-16T13:35:02.232Z,8.80
2023-04-16T13:37:29.547Z,8.85
2023-04-16T13:39:56.805Z,9.90
2023-04-16T13:42:24.116Z,7.90
2023-04-16T13:44:54.318Z,9.95
2023-04-16T13:47:22.353Z,9.73
2023-04-16T13:49:49.374Z,8.07
2023-04-16T13:52:17.009Z,9.00
2023-04-16T13:54:44.225Z,9.70
2023-04-16T13:57:20.060Z,10.20
2023-04-16T13:59:47.030Z,7.40
2023-04-16T14:02:15.010Z,8.13
2023-04-16T14:04:42.214Z,9.48
2023-04-16T14:07:09.566Z,8.27
2023-04-16T14:09:36.791Z,9.75
2023-04-16T14:12:04.494Z,9.50
2023-04-16T14:14:31.428Z,7.40
2023-04-16T14:16:59.320Z,7.90
2023-04-16T14:19:26.222Z,7.47
2023-04-16T14:21:53.406Z,8.65
2023-04-16T14:24:20.461Z,7.30
2023-04-16T14:26:47.734Z,8.18
2023-04-16T14:29:14.665Z,8.05
2023-04-16T14:31:42.228Z,7.88
2023-04-16T14:34:09.167Z,8.55
2023-04-16T14:36:37.048Z,8.90
2023-04-16T14:39:04.906Z,8.18
2023-04-16T14:41:32.134Z,8.40
2023-04-16T14:43:59.565Z,7.80
2023-04-16T14:46:27.284Z,7.95
2023-04-16T14:48:54.161Z,7.60
2023-04-16T14:51:21.410Z,7.88
2023-04-16T14:53:48.614Z,7.35
2023-04-16T14:56:15.872Z,6.13
2023-04-16T14:58:43.557Z,5.05
2023-04-16T15:01:11.057Z,6.10
2023-04-16T15:03:38.303Z,5.00
2023-04-16T15:06:05.926Z,4.55
2023-04-16T15:08:34.809Z,4.30
2023-04-16T15:11:02.065Z,4.05
2023-04-16T15:13:34.108Z,4.03
2023-04-16T15:16:07.482Z,4.13
2023-04-16T15:18:34.466Z,3.97
2023-04-16T15:21:01.733Z,4.95
2023-04-16T15:23:28.642Z,4.70
2023-04-16T15:25:55.879Z,4.00
2023-04-16T15:28:22.930Z,4.05
2023-04-16T15:30:50.624Z,3.95
2023-04-16T15:33:17.540Z,4.30
2023-04-16T15:35:44.826Z,4.85
2023-04-16T15:38:11.723Z,4.10
2023-04-16T15:40:38.974Z,4.28
2023-04-16T15:43:07.017Z,4.13
2023-04-16T15:45:34.971Z,3.83
2023-04-16T15:48:01.915Z,3.63
2023-04-16T15:50:29.313Z,3.60
2023-04-16T15:52:56.716Z,3.63
2023-04-16T15:55:23.925Z,4.60
2023-04-16T15:57:50.952Z,4.32
2023-04-16T16:00:19.001Z,4.00
2023-04-16T16:02:49.922Z,3.07
2023-04-16T16:05:17.512Z,2.95
2023-04-16T16:07:44.550Z,3.60
2023-04-16T16:10:13.323Z,3.40
2023-04-16T16:12:41.154Z,3.40
2023-04-16T16:15:09.309Z,3.50
2023-04-16T16:17:36.310Z,2.90
2023-04-16T16:20:04.292Z,2.83
2023-04-16T16:22:31.218Z,3.10
2023-04-16T16:24:58.636Z,2.60
2023-04-16T16:27:25.734Z,2.80
2023-04-16T16:29:52.988Z,2.70
2023-04-16T16:32:20.017Z,2.45
2023-04-16T16:34:47.272Z,2.10
2023-04-16T16:37:14.232Z,2.28
2023-04-16T16:39:41.644Z,2.00
2023-04-16T16:42:09.386Z,2.05
2023-04-16T16:44:36.988Z,2.10
2023-04-16T16:47:04.012Z,2.40
2023-04-16T16:49:31.301Z,2.08
2023-04-16T16:51:58.201Z,2.00
2023-04-16T16:54:25.591Z,1.90
2023-04-16T16:56:53.176Z,2.10
2023-04-16T16:59:20.477Z,2.20
2023-04-16T17:01:47.399Z,2.03
2023-04-16T17:04:15.035Z,2.40
2023-04-16T17:06:43.049Z,3.25
2023-04-16T17:09:11.364Z,10.52
2023-04-16T17:11:38.797Z,8.70
2023-04-16T17:14:06.168Z,5.13
2023-04-16T17:16:33.213Z,3.40
2023-04-16T17:19:01.589Z,3.00
2023-04-16T17:21:28.439Z,2.67
2023-04-16T17:23:57.654Z,3.33
2023-04-16T17:26:24.714Z,2.40
2023-04-16T17:28:51.928Z,2.80
2023-04-16T17:31:19.021Z,2.90
2023-04-16T17:33:46.469Z,2.70
2023-04-16T17:36:13.812Z,2.80
2023-04-16T17:38:44.267Z,2.22
2023-04-16T17:41:12.687Z,2.70
2023-04-16T17:43:40.074Z,2.90
2023-04-16T17:46:10.623Z,3.15
2023-04-16T17:48:38.048Z,2.90
2023-04-16T17:51:11.862Z,2.72
2023-04-16T17:53:39.421Z,2.60
2023-04-16T17:56:07.054Z,2.75
2023-04-16T17:58:35.476Z,2.90
2023-04-16T18:01:03.678Z,2.50
2023-04-16T18:03:32.653Z,2.50
2023-04-16T18:05:59.824Z,2.70
2023-04-16T18:08:30.159Z,2.80
2023-04-16T18:10:57.261Z,2.80
2023-04-16T18:13:26.454Z,2.75
2023-04-16T18:15:53.915Z,2.58
2023-04-16T18:18:21.573Z,4.00
2023-04-16T18:20:48.659Z,5.90
2023-04-16T18:23:16.354Z,5.47
2023-04-16T18:25:43.338Z,4.22
2023-04-16T18:28:13.305Z,2.95
2023-04-16T18:30:41.193Z,2.83
2023-04-16T18:33:34.263Z,3.00
2023-04-16T18:35:55.514Z,3.15
2023-04-16T18:38:22.772Z,3.88
2023-04-16T18:40:49.982Z,3.70
2023-04-16T18:43:17.780Z,3.93
2023-04-16T18:45:44.856Z,3.78
2023-04-16T18:48:12.145Z,3.70
2023-04-16T18:50:39.320Z,4.70
2023-04-16T18:53:06.607Z,4.10
2023-04-16T18:55:33.578Z,3.97
2023-04-16T18:58:00.829Z,4.80
2023-04-16T19:00:27.875Z,4.18
2023-04-16T19:02:55.275Z,3.83
2023-04-16T19:05:23.195Z,3.13
2023-04-16T19:07:50.442Z,3.30
2023-04-16T19:10:17.491Z,3.33
2023-04-16T19:12:45.130Z,3.08
2023-04-16T19:15:12.105Z,2.60
2023-04-16T19:17:40.182Z,2.28
2023-04-16T19:20:11.681Z,2.10
2023-04-16T19:22:39.023Z,2.20
2023-04-16T19:25:07.203Z,2.35
2023-04-16T19:27:35.040Z,3.17
2023-04-16T19:30:03.103Z,2.67
2023-04-16T19:32:31.031Z,2.50
2023-04-16T19:34:57.944Z,2.70
2023-04-16T19:37:25.270Z,3.30
2023-04-16T19:39:52.281Z,3.00
2023-04-16T19:42:19.583Z,2.80
2023-04-16T19:44:46.874Z,3.00
2023-04-16T19:47:14.151Z,2.70
2023-04-16T19:49:43.753Z,2.80
2023-04-16T19:52:11.003Z,2.67
2023-04-16T19:54:38.007Z,2.42
2023-04-16T19:57:05.276Z,2.33
2023-04-16T19:59:33.287Z,2.40
2023-04-16T20:02:00.929Z,7.82
2023-04-16T20:04:27.971Z,7.57
2023-04-16T20:06:55.526Z,6.40
2023-04-16T20:09:23.611Z,4.60
2023-04-16T20:11:51.725Z,3.92
2023-04-16T20:14:18.794Z,3.35
2023-04-16T20:16:46.382Z,2.83
2023-04-16T20:19:17.115Z,2.40
2023-04-16T20:21:45.876Z,3.20
2023-04-16T20:24:15.629Z,2.83
2023-04-16T20:26:43.109Z,2.90
2023-04-16T20:29:10.429Z,2.70
2023-04-16T20:31:37.905Z,2.65
2023-04-16T20:34:04.759Z,2.50
2023-04-16T20:36:32.115Z,2.78
2023-04-16T20:39:00.113Z,2.60
2023-04-16T20:41:27.731Z,2.22
2023-04-16T20:43:54.686Z,2.30
2023-04-16T20:46:25.321Z,2.00
2023-04-16T20:48:52.264Z,2.03
2023-04-16T20:51:20.166Z,1.90
2023-04-16T20:53:47.369Z,2.65
2023-04-16T20:56:17.404Z,2.30
2023-04-16T20:58:44.397Z,2.03
2023-04-16T21:01:12.137Z,1.98
2023-04-16T21:03:39.198Z,2.10
2023-04-16T21:06:06.649Z,2.13
2023-04-16T21:08:33.630Z,2.10
2023-04-16T21:11:00.904Z,2.10
2023-04-16T21:13:27.857Z,2.60
2023-04-16T21:15:55.158Z,3.00
2023-04-16T21:18:22.225Z,3.13
2023-04-16T21:20:49.672Z,3.85
2023-04-16T21:23:16.628Z,4.57
2023-04-16T21:25:43.904Z,4.50
2023-04-16T21:28:10.916Z,3.40
2023-04-16T21:30:38.599Z,2.40
2023-04-16T21:33:05.991Z,2.33
2023-04-16T21:35:34.007Z,2.20
2023-04-16T21:38:01.131Z,2.30
2023-04-16T21:40:28.427Z,2.17
2023-04-16T21:42:55.648Z,1.90
2023-04-16T21:45:22.940Z,2.30
2023-04-16T21:47:49.907Z,2.10
2023-04-16T21:50:17.220Z,1.90
2023-04-16T21:52:46.483Z,1.90
2023-04-16T21:55:14.613Z,2.10
2023-04-16T21:57:41.565Z,1.92
2023-04-16T22:00:12.405Z,2.30
2023-04-16T22:02:40.750Z,2.42
2023-04-16T22:05:09.328Z,2.47
2023-04-16T22:07:36.959Z,2.15
2023-04-16T22:10:04.832Z,2.10
2023-04-16T22:12:31.884Z,1.93
2023-04-16T22:15:02.920Z,2.20
2023-04-16T22:17:30.496Z,2.60
2023-04-16T22:20:00.614Z,2.60
2023-04-16T22:22:27.835Z,3.08
2023-04-16T22:24:55.357Z,3.53
2023-04-16T22:27:22.305Z,3.25
2023-04-16T22:29:49.636Z,3.50
2023-04-16T22:32:16.661Z,3.10
2023-04-16T22:34:44.001Z,3.20
2023-04-16T22:37:10.989Z,2.90
2023-04-16T22:39:38.226Z,2.63
2023-04-16T22:42:05.318Z,3.17
2023-04-16T22:44:32.641Z,2.95
2023-04-16T22:46:59.927Z,3.25
2023-04-16T22:49:28.381Z,2.60
2023-04-16T22:51:55.566Z,3.00
2023-04-16T22:54:22.817Z,3.40
2023-04-16T22:56:50.096Z,2.80
2023-04-16T22:59:17.463Z,3.30
2023-04-16T23:01:44.412Z,3.20
2023-04-16T23:04:11.969Z,3.00
2023-04-16T23:06:40.719Z,2.92
2023-04-16T23:09:08.578Z,2.60
2023-04-16T23:11:35.784Z,2.80
2023-04-16T23:14:05.227Z,2.80
2023-04-16T23:16:32.138Z,2.97
2023-04-16T23:18:59.388Z,2.72
2023-04-16T23:21:26.475Z,3.03
2023-04-16T23:23:53.772Z,3.67
2023-04-16T23:26:20.757Z,4.70
2023-04-16T23:28:47.991Z,4.90
2023-04-16T23:31:15.294Z,4.15
2023-04-16T23:33:42.561Z,4.55
2023-04-16T23:36:10.136Z,4.85
2023-04-16T23:38:37.351Z,4.40
2023-04-16T23:41:04.294Z,5.30
2023-04-16T23:43:31.544Z,5.00
2023-04-16T23:45:58.725Z,5.30
2023-04-16T23:48:25.980Z,5.32
2023-04-16T23:50:52.880Z,4.73
2023-04-16T23:53:20.153Z,5.00
2023-04-16T23:55:47.210Z,5.57
2023-04-16T23:58:14.459Z,5.15
